Time,TemperatureF,DewpointF,PressureIn,WindDirection,WindDirectionDegrees,WindSpeedMPH,WindSpeedGustMPH,Humidity,HourlyPrecipIn,Conditions,Clouds,dailyrainin,SoftwareType,DateUTC
2013-03-03 00:02:00,35.0,33.0,29.65,NW,325,0.0,6.0,92,0.00,,,0.87,,2013-03-03 05:02:00,
2013-03-03 00:12:00,35.0,33.0,29.65,NW,325,0.0,6.0,92,0.00,,,0.87,,2013-03-03 05:12:00,
2013-03-03 00:22:00,35.0,33.0,29.65,NW,319,0.0,6.0,94,0.00,,,0.87,,2013-03-03 05:22:00,
2013-03-03 00:32:00,35.0,33.0,29.65,NW,319,0.0,6.0,94,0.00,,,0.87,,2013-03-03 05:32:00,
2013-03-03 00:42:00,35.0,33.0,29.65,NW,319,0.0,6.0,94,0.00,,,0.87,,2013-03-03 05:42:00,
2013-03-03 00:52:00,34.0,32.0,29.65,NW,320,1.0,6.0,94,0.00,,,0.87,,2013-03-03 05:52:00,
2013-03-03 01:02:00,34.0,33.0,29.65,WNW,303,0.0,5.0,97,0.00,,,0.87,,2013-03-03 06:02:00,
2013-03-03 01:11:00,34.0,33.0,29.65,WNW,303,0.0,5.0,97,0.00,,,0.87,,2013-03-03 06:11:00,
2013-03-03 01:21:00,33.0,32.0,29.65,NW,317,0.0,5.0,98,0.00,,,0.87,,2013-03-03 06:21:00,
2013-03-03 01:32:00,33.0,31.0,29.65,NW,315,0.0,4.0,92,0.00,,,0.87,,2013-03-03 06:32:00,
2013-03-03 01:42:00,33.0,31.0,29.65,NW,315,0.0,4.0,92,0.00,,,0.87,,2013-03-03 06:42:00,
2013-03-03 01:52:00,32.0,31.0,29.64,West,280,0.0,5.0,97,0.00,,,0.87,,2013-03-03 06:52:00,
2013-03-03 02:01:00,32.0,32.0,29.65,NW,313,0.0,5.0,99,0.00,,,0.87,,2013-03-03 07:01:00,
2013-03-03 02:11:00,32.0,32.0,29.65,NW,313,0.0,5.0,99,0.00,,,0.87,,2013-03-03 07:11:00,
2013-03-03 02:21:00,32.0,32.0,29.64,NW,314,0.0,5.0,100,0.00,,,0.87,,2013-03-03 07:21:00,
2013-03-03 02:32:00,32.0,32.0,29.64,WSW,252,0.0,5.0,100,0.00,,,0.87,,2013-03-03 07:32:00,
2013-03-03 02:42:00,32.0,32.0,29.64,WSW,252,0.0,5.0,100,0.00,,,0.87,,2013-03-03 07:42:00,
2013-03-03 02:51:00,32.0,32.0,29.63,West,280,0.0,5.0,100,0.00,,,0.87,,2013-03-03 07:51:00,
2013-03-03 03:01:00,32.0,32.0,29.63,NNW,327,0.0,7.0,98,0.00,,,0.87,,2013-03-03 08:01:00,
2013-03-03 03:11:00,32.0,32.0,29.63,NNW,327,0.0,7.0,98,0.00,,,0.87,,2013-03-03 08:11:00,
2013-03-03 03:21:00,32.0,32.0,29.62,WNW,295,0.0,7.0,98,0.00,,,0.87,,2013-03-03 08:21:00,
2013-03-03 03:32:00,31.0,31.0,29.63,WNW,291,0.0,7.0,100,0.00,,,0.87,,2013-03-03 08:32:00,
2013-03-03 03:42:00,31.0,31.0,29.63,WNW,291,0.0,7.0,100,0.00,,,0.87,,2013-03-03 08:42:00,
2013-03-03 03:53:00,31.0,31.0,29.63,WNW,282,0.0,7.0,100,0.00,,,0.87,,2013-03-03 08:53:00,
2013-03-03 04:02:00,31.0,31.0,29.62,West,266,0.0,6.0,100,0.00,,,0.87,,2013-03-03 09:02:00,
2013-03-03 04:12:00,31.0,31.0,29.62,West,266,0.0,6.0,100,0.00,,,0.87,,2013-03-03 09:12:00,
2013-03-03 04:21:00,31.0,31.0,29.62,WNW,295,0.0,7.0,100,0.00,,,0.87,,2013-03-03 09:21:00,
2013-03-03 04:32:00,31.0,31.0,29.62,West,279,1.0,7.0,100,0.00,,,0.87,,2013-03-03 09:32:00,
2013-03-03 04:42:00,31.0,31.0,29.62,West,279,1.0,7.0,100,0.00,,,0.87,,2013-03-03 09:42:00,
2013-03-03 04:51:00,31.0,31.0,29.63,West,267,1.0,7.0,100,0.00,,,0.87,,2013-03-03 09:51:00,
2013-03-03 05:01:00,31.0,31.0,29.63,West,280,0.0,5.0,100,0.00,,,0.58,,2013-03-03 10:01:00,
2013-03-03 05:11:00,31.0,31.0,29.63,West,280,0.0,5.0,100,0.00,,,0.58,,2013-03-03 10:11:00,
2013-03-03 05:21:00,31.0,31.0,29.63,WNW,293,0.0,5.0,100,0.00,,,0.58,,2013-03-03 10:21:00,
2013-03-03 05:32:00,31.0,31.0,29.63,West,265,0.0,6.0,98,0.00,,,0.58,,2013-03-03 10:32:00,
2013-03-03 05:42:00,31.0,31.0,29.63,West,265,0.0,6.0,98,0.00,,,0.58,,2013-03-03 10:42:00,
2013-03-03 05:52:00,31.0,30.0,29.63,WNW,295,0.0,6.0,97,0.00,,,0.58,,2013-03-03 10:52:00,
2013-03-03 06:01:00,30.0,29.0,29.63,West,279,0.0,3.0,95,0.00,,,0.58,,2013-03-03 11:01:00,
2013-03-03 06:11:00,30.0,29.0,29.63,West,279,0.0,3.0,95,0.00,,,0.58,,2013-03-03 11:11:00,
2013-03-03 06:22:00,30.0,29.0,29.63,West,279,0.0,3.0,95,0.00,,,0.58,,2013-03-03 11:22:00,
2013-03-03 06:32:00,30.0,28.0,29.63,West,261,1.0,6.0,94,0.00,,,0.58,,2013-03-03 11:32:00,
2013-03-03 06:42:00,30.0,28.0,29.63,West,261,1.0,6.0,94,0.00,,,0.58,,2013-03-03 11:42:00,
2013-03-03 06:53:00,30.0,28.0,29.63,West,261,1.0,6.0,94,0.00,,,0.58,,2013-03-03 11:53:00,
2013-03-03 07:02:00,30.0,29.0,29.63,WSW,254,0.0,7.0,95,0.00,,,0.58,,2013-03-03 12:02:00,
2013-03-03 07:11:00,30.0,29.0,29.63,WSW,254,0.0,7.0,95,0.00,,,0.58,,2013-03-03 12:11:00,
2013-03-03 07:22:00,30.0,29.0,29.64,WSW,250,2.0,7.0,95,0.00,,,0.58,,2013-03-03 12:22:00,
2013-03-03 07:32:00,30.0,29.0,29.64,WNW,295,0.0,4.0,96,0.00,,,0.58,,2013-03-03 12:32:00,
2013-03-03 07:43:00,30.0,29.0,29.64,WNW,295,0.0,4.0,96,0.00,,,0.58,,2013-03-03 12:43:00,
2013-03-03 07:52:00,30.0,29.0,29.64,West,260,1.0,4.0,98,0.00,,,0.58,,2013-03-03 12:52:00,
2013-03-03 08:02:00,30.0,29.0,29.64,WNW,288,2.0,7.0,97,0.29,,,0.87,,2013-03-03 13:02:00,
2013-03-03 08:11:00,30.0,29.0,29.64,WNW,288,2.0,7.0,97,0.29,,,0.87,,2013-03-03 13:11:00,
2013-03-03 08:22:00,31.0,30.0,29.64,NW,312,2.0,7.0,97,0.29,,,0.87,,2013-03-03 13:22:00,
2013-03-03 08:32:00,31.0,30.0,29.64,West,277,0.0,4.0,97,0.58,,,1.16,,2013-03-03 13:32:00,
2013-03-03 08:42:00,31.0,30.0,29.64,West,277,0.0,4.0,97,0.58,,,1.16,,2013-03-03 13:42:00,
2013-03-03 08:52:00,31.0,30.0,29.64,West,277,0.0,4.0,97,0.58,,,1.16,,2013-03-03 13:52:00,
2013-03-03 09:02:00,31.0,31.0,29.63,WNW,303,3.0,7.0,98,1.45,,,2.03,,2013-03-03 14:02:00,
2013-03-03 09:11:00,31.0,31.0,29.63,WNW,303,3.0,7.0,98,1.45,,,2.03,,2013-03-03 14:11:00,
2013-03-03 09:22:00,32.0,32.0,29.63,WNW,300,1.0,8.0,99,2.90,,,3.19,,2013-03-03 14:22:00,
2013-03-03 09:32:00,32.0,32.0,29.62,West,278,2.0,7.0,99,4.64,,,5.51,,2013-03-03 14:32:00,
2013-03-03 09:42:00,32.0,32.0,29.62,West,278,2.0,7.0,99,4.64,,,5.51,,2013-03-03 14:42:00,
2013-03-03 09:52:00,32.0,32.0,29.62,West,278,2.0,7.0,99,4.64,,,5.51,,2013-03-03 14:52:00,
2013-03-03 10:02:00,33.0,33.0,29.62,West,278,1.0,5.0,100,6.96,,,8.70,,2013-03-03 15:02:00,
2013-03-03 10:11:00,33.0,33.0,29.62,West,278,1.0,5.0,100,6.96,,,8.70,,2013-03-03 15:11:00,
2013-03-03 10:22:00,34.0,34.0,29.62,WNW,286,3.0,5.0,100,7.83,,,9.57,,2013-03-03 15:22:00,
2013-03-03 10:32:00,34.0,34.0,29.62,West,267,0.0,5.0,100,7.54,,,1.13,,2013-03-03 15:32:00,
2013-03-03 10:42:00,34.0,34.0,29.62,West,267,0.0,5.0,100,7.54,,,1.13,,2013-03-03 15:42:00,
2013-03-03 10:52:00,34.0,34.0,29.62,WSW,255,2.0,6.0,100,8.41,,,1.21,,2013-03-03 15:52:00,
2013-03-03 11:02:00,35.0,35.0,29.61,WNW,289,3.0,8.0,100,6.67,,,1.33,,2013-03-03 16:02:00,
2013-03-03 11:12:00,35.0,35.0,29.61,WNW,289,3.0,8.0,100,6.67,,,1.33,,2013-03-03 16:12:00,
2013-03-03 11:22:00,35.0,35.0,29.61,WNW,289,3.0,8.0,100,6.67,,,1.33,,2013-03-03 16:22:00,
2013-03-03 11:32:00,36.0,36.0,29.61,West,278,2.0,7.0,100,5.22,,,1.50,,2013-03-03 16:32:00,
2013-03-03 11:42:00,36.0,36.0,29.61,West,278,2.0,7.0,100,5.22,,,1.50,,2013-03-03 16:42:00,
2013-03-03 11:52:00,36.0,36.0,29.61,West,278,2.0,7.0,100,5.22,,,1.50,,2013-03-03 16:52:00,
2013-03-03 12:01:00,36.0,36.0,29.60,NW,308,3.0,8.0,100,3.48,,,1.56,,2013-03-03 17:01:00,
2013-03-03 12:11:00,37.0,37.0,29.60,West,273,0.0,8.0,100,3.48,,,1.56,,2013-03-03 17:11:00,
2013-03-03 12:22:00,37.0,37.0,29.60,West,273,0.0,8.0,100,3.48,,,1.56,,2013-03-03 17:22:00,
2013-03-03 12:32:00,37.0,37.0,29.59,NW,307,3.0,6.0,100,1.45,,,1.56,,2013-03-03 17:32:00,
2013-03-03 12:42:00,37.0,37.0,29.59,NW,307,3.0,6.0,100,1.45,,,1.56,,2013-03-03 17:42:00,
2013-03-03 12:52:00,38.0,38.0,29.59,NW,313,2.0,8.0,100,1.45,,,1.56,,2013-03-03 17:52:00,
2013-03-03 13:02:00,39.0,39.0,29.58,West,270,2.0,7.0,100,0.29,,,1.56,,2013-03-03 18:02:00,
2013-03-03 13:11:00,39.0,39.0,29.58,West,270,2.0,7.0,100,0.29,,,1.56,,2013-03-03 18:11:00,
2013-03-03 13:21:00,39.0,39.0,29.57,North,349,7.0,7.0,100,0.29,,,1.56,,2013-03-03 18:21:00,
2013-03-03 13:32:00,40.0,40.0,29.57,WSW,256,2.0,9.0,100,0.00,,,1.56,,2013-03-03 18:32:00,
2013-03-03 13:42:00,40.0,40.0,29.57,WSW,256,2.0,9.0,100,0.00,,,1.56,,2013-03-03 18:42:00,
2013-03-03 13:52:00,40.0,40.0,29.57,WSW,256,2.0,9.0,100,0.00,,,1.56,,2013-03-03 18:52:00,
2013-03-03 14:02:00,39.0,39.0,29.57,West,271,4.0,9.0,100,0.00,,,1.56,,2013-03-03 19:02:00,
2013-03-03 14:11:00,39.0,39.0,29.57,West,273,3.0,9.0,100,0.00,,,1.56,,2013-03-03 19:11:00,
2013-03-03 14:22:00,39.0,39.0,29.57,West,273,3.0,9.0,100,0.00,,,1.56,,2013-03-03 19:22:00,
2013-03-03 14:32:00,38.0,38.0,29.57,NW,311,3.0,5.0,100,0.00,,,1.56,,2013-03-03 19:32:00,
2013-03-03 14:42:00,38.0,38.0,29.57,NW,311,3.0,5.0,100,0.00,,,1.56,,2013-03-03 19:42:00,
2013-03-03 14:52:00,38.0,38.0,29.57,West,277,3.0,5.0,100,0.00,,,1.56,,2013-03-03 19:52:00,
2013-03-03 15:01:00,39.0,39.0,29.56,NW,323,2.0,5.0,100,0.00,,,1.56,,2013-03-03 20:01:00,
2013-03-03 15:11:00,39.0,39.0,29.56,NW,323,2.0,5.0,100,0.00,,,1.56,,2013-03-03 20:11:00,
2013-03-03 15:22:00,39.0,39.0,29.56,West,260,2.0,5.0,100,0.00,,,1.56,,2013-03-03 20:22:00,
2013-03-03 15:32:00,39.0,39.0,29.56,WSW,249,3.0,6.0,100,0.00,,,1.56,,2013-03-03 20:32:00,
2013-03-03 15:42:00,39.0,39.0,29.56,WSW,249,3.0,6.0,100,0.00,,,1.56,,2013-03-03 20:42:00,
2013-03-03 15:52:00,39.0,39.0,29.56,WSW,248,2.0,6.0,100,0.00,,,1.56,,2013-03-03 20:52:00,
2013-03-03 16:02:00,40.0,40.0,29.56,West,259,1.0,5.0,99,0.00,,,1.53,,2013-03-03 21:02:00,
2013-03-03 16:11:00,40.0,40.0,29.56,West,259,1.0,5.0,99,0.00,,,1.53,,2013-03-03 21:11:00,
2013-03-03 16:22:00,39.0,38.0,29.56,NW,326,6.0,6.0,98,0.00,,,1.53,,2013-03-03 21:22:00,
2013-03-03 16:32:00,39.0,38.0,29.55,WNW,299,2.0,6.0,97,0.00,,,1.53,,2013-03-03 21:32:00,
2013-03-03 16:42:00,39.0,38.0,29.55,WNW,299,2.0,6.0,97,0.00,,,1.53,,2013-03-03 21:42:00,
2013-03-03 16:52:00,39.0,38.0,29.56,West,275,0.0,6.0,97,0.00,,,1.53,,2013-03-03 21:52:00,
2013-03-03 17:02:00,39.0,38.0,29.56,West,262,2.0,6.0,97,0.00,,,1.53,,2013-03-03 22:02:00,
2013-03-03 17:11:00,39.0,38.0,29.56,West,262,2.0,6.0,97,0.00,,,1.53,,2013-03-03 22:11:00,
2013-03-03 17:22:00,39.0,38.0,29.56,West,264,1.0,6.0,95,0.00,,,1.53,,2013-03-03 22:22:00,
2013-03-03 17:32:00,39.0,37.0,29.57,WNW,287,3.0,5.0,94,0.00,,,1.53,,2013-03-03 22:32:00,
2013-03-03 17:42:00,39.0,37.0,29.57,WNW,287,3.0,5.0,94,0.00,,,1.53,,2013-03-03 22:42:00,
2013-03-03 17:52:00,39.0,37.0,29.57,WNW,287,3.0,5.0,94,0.00,,,1.53,,2013-03-03 22:52:00,
2013-03-03 18:02:00,38.0,36.0,29.57,West,260,0.0,3.0,93,0.00,,,1.53,,2013-03-03 23:02:00,
2013-03-03 18:11:00,38.0,36.0,29.57,West,260,0.0,3.0,93,0.00,,,1.53,,2013-03-03 23:11:00,
2013-03-03 18:22:00,38.0,36.0,29.57,West,260,2.0,3.0,93,0.00,,,1.53,,2013-03-03 23:22:00,
2013-03-03 18:32:00,38.0,36.0,29.57,West,262,2.0,4.0,93,0.00,,,1.53,,2013-03-03 23:32:00,
2013-03-03 18:42:00,38.0,36.0,29.57,West,262,2.0,4.0,93,0.00,,,1.53,,2013-03-03 23:42:00,
2013-03-03 18:52:00,38.0,36.0,29.57,West,262,2.0,4.0,93,0.00,,,1.53,,2013-03-03 23:52:00,
2013-03-03 19:02:00,38.0,36.0,29.57,West,267,3.0,6.0,93,0.00,,,1.53,,2013-03-04 00:02:00,
2013-03-03 19:11:00,38.0,36.0,29.57,West,267,3.0,6.0,93,0.00,,,1.53,,2013-03-04 00:11:00,
2013-03-03 19:22:00,38.0,36.0,29.57,West,267,3.0,6.0,93,0.00,,,1.53,,2013-03-04 00:22:00,
2013-03-03 19:32:00,37.0,35.0,29.58,West,269,3.0,7.0,92,0.00,,,1.53,,2013-03-04 00:32:00,
2013-03-03 19:42:00,37.0,35.0,29.58,West,269,3.0,7.0,92,0.00,,,1.53,,2013-03-04 00:42:00,
2013-03-03 19:52:00,37.0,35.0,29.58,West,267,1.0,7.0,93,0.00,,,1.53,,2013-03-04 00:52:00,
2013-03-03 20:02:00,37.0,35.0,29.58,West,261,3.0,5.0,93,0.00,,,1.53,,2013-03-04 01:02:00,
2013-03-03 20:12:00,37.0,35.0,29.58,West,261,3.0,5.0,93,0.00,,,1.53,,2013-03-04 01:12:00,
2013-03-03 20:22:00,37.0,35.0,29.58,WNW,282,3.0,7.0,92,0.00,,,1.53,,2013-03-04 01:22:00,
2013-03-03 20:32:00,36.0,34.0,29.59,WNW,290,3.0,10.0,93,0.00,,,1.53,,2013-03-04 01:32:00,
2013-03-03 20:42:00,36.0,34.0,29.59,WNW,290,3.0,10.0,93,0.00,,,1.53,,2013-03-04 01:42:00,
2013-03-03 20:52:00,36.0,34.0,29.59,WSW,244,4.0,14.0,94,0.00,,,1.53,,2013-03-04 01:52:00,
2013-03-03 21:01:00,35.0,34.0,29.59,NW,308,5.0,9.0,97,0.00,,,1.53,,2013-03-04 02:01:00,
2013-03-03 21:11:00,35.0,34.0,29.59,NW,308,5.0,9.0,97,0.00,,,1.53,,2013-03-04 02:11:00,
2013-03-03 21:22:00,35.0,34.0,29.59,WNW,285,2.0,10.0,97,0.00,,,1.53,,2013-03-04 02:22:00,
2013-03-03 21:32:00,34.0,34.0,29.59,WNW,299,2.0,10.0,98,0.00,,,1.53,,2013-03-04 02:32:00,
2013-03-03 21:42:00,34.0,34.0,29.59,WNW,299,2.0,10.0,98,0.00,,,1.53,,2013-03-04 02:42:00,
2013-03-03 21:52:00,34.0,34.0,29.59,NW,307,6.0,10.0,98,0.00,,,1.53,,2013-03-04 02:52:00,
2013-03-03 22:02:00,34.0,33.0,29.58,West,278,3.0,9.0,96,0.00,,,1.53,,2013-03-04 03:02:00,
2013-03-03 22:11:00,34.0,33.0,29.58,West,278,3.0,9.0,96,0.00,,,1.53,,2013-03-04 03:11:00,
2013-03-03 22:22:00,34.0,33.0,29.58,West,279,2.0,10.0,95,0.00,,,1.53,,2013-03-04 03:22:00,
2013-03-03 22:32:00,34.0,32.0,29.58,NW,314,6.0,10.0,94,0.00,,,1.53,,2013-03-04 03:32:00,
2013-03-03 22:42:00,34.0,32.0,29.58,WNW,287,3.0,10.0,94,0.00,,,1.53,,2013-03-04 03:42:00,
2013-03-03 22:52:00,34.0,32.0,29.58,WNW,287,3.0,10.0,94,0.00,,,1.53,,2013-03-04 03:52:00,
2013-03-03 23:01:00,34.0,32.0,29.58,WNW,298,6.0,10.0,93,0.00,,,1.53,,2013-03-04 04:01:00,
2013-03-03 23:11:00,34.0,32.0,29.58,WNW,298,6.0,10.0,93,0.00,,,1.53,,2013-03-04 04:11:00,
2013-03-03 23:22:00,34.0,32.0,29.58,NW,322,3.0,10.0,93,0.00,,,1.53,,2013-03-04 04:22:00,
2013-03-03 23:32:00,34.0,32.0,29.58,NW,319,4.0,10.0,93,0.00,,,1.53,,2013-03-04 04:32:00,
2013-03-03 23:42:00,34.0,32.0,29.58,NW,319,4.0,10.0,93,0.00,,,1.53,,2013-03-04 04:42:00,
2013-03-03 23:52:00,34.0,32.0,29.58,SW,226,5.0,10.0,93,0.00,,,1.53,,2013-03-04 04:52:00,